sensor_id;sensor_type;location;lat;lon;timestamp;P1;durP1;ratioP1;P2;durP2;ratioP2
40827;SDS011;26549;50.918;5.338;2024-01-16T00:01:53;9.18;;;3.58;;
40827;SDS011;26549;50.918;5.338;2024-01-16T00:04:19;7.07;;;3.08;;
40827;SDS011;26549;50.918;5.338;2024-01-16T00:06:45;9.10;;;3.92;;
40827;SDS011;26549;50.918;5.338;2024-01-16T00:09:11;11.30;;;3.50;;
40827;SDS011;26549;50.918;5.338;2024-01-16T00:11:43;8.88;;;3.47;;
40827;SDS011;26549;50.918;5.338;2024-01-16T00:14:09;5.75;;;2.83;;
40827;SDS011;26549;50.918;5.338;2024-01-16T00:16:56;11.07;;;2.95;;
40827;SDS011;26549;50.918;5.338;2024-01-16T00:19:21;5.93;;;2.88;;
40827;SDS011;26549;50.918;5.338;2024-01-16T00:21:46;6.38;;;3.30;;
40827;SDS011;26549;50.918;5.338;2024-01-16T00:24:15;7.32;;;3.10;;
40827;SDS011;26549;50.918;5.338;2024-01-16T00:26:43;8.93;;;3.55;;
40827;SDS011;26549;50.918;5.338;2024-01-16T00:29:09;6.90;;;2.90;;
40827;SDS011;26549;50.918;5.338;2024-01-16T00:31:37;13.07;;;3.67;;
40827;SDS011;26549;50.918;5.338;2024-01-16T00:34:05;10.38;;;3.30;;
40827;SDS011;26549;50.918;5.338;2024-01-16T00:36:31;9.15;;;4.57;;
40827;SDS011;26549;50.918;5.338;2024-01-16T00:38:57;7.22;;;2.80;;
40827;SDS011;26549;50.918;5.338;2024-01-16T00:41:23;8.25;;;3.35;;
40827;SDS011;26549;50.918;5.338;2024-01-16T00:43:49;5.22;;;2.92;;
40827;SDS011;26549;50.918;5.338;2024-01-16T00:46:15;5.13;;;3.33;;
40827;SDS011;26549;50.918;5.338;2024-01-16T00:48:41;6.80;;;3.17;;
40827;SDS011;26549;50.918;5.338;2024-01-16T00:51:06;9.55;;;3.08;;
40827;SDS011;26549;50.918;5.338;2024-01-16T00:53:32;4.78;;;2.88;;
40827;SDS011;26549;50.918;5.338;2024-01-16T00:55:58;10.75;;;3.28;;
40827;SDS011;26549;50.918;5.338;2024-01-16T00:58:24;9.80;;;2.85;;
40827;SDS011;26549;50.918;5.338;2024-01-16T01:00:49;10.65;;;3.60;;
40827;SDS011;26549;50.918;5.338;2024-01-16T01:03:15;7.55;;;2.95;;
40827;SDS011;26549;50.918;5.338;2024-01-16T01:05:42;7.32;;;3.55;;
40827;SDS011;26549;50.918;5.338;2024-01-16T01:08:08;5.85;;;3.05;;
40827;SDS011;26549;50.918;5.338;2024-01-16T01:10:34;10.15;;;3.42;;
40827;SDS011;26549;50.918;5.338;2024-01-16T01:12:59;14.40;;;4.05;;
40827;SDS011;26549;50.918;5.338;2024-01-16T01:15:25;6.97;;;3.60;;
40827;SDS011;26549;50.918;5.338;2024-01-16T01:17:51;5.47;;;2.58;;
40827;SDS011;26549;50.918;5.338;2024-01-16T01:20:17;6.30;;;3.25;;
40827;SDS011;26549;50.918;5.338;2024-01-16T01:22:44;10.57;;;3.88;;
40827;SDS011;26549;50.918;5.338;2024-01-16T01:25:13;4.28;;;3.10;;
40827;SDS011;26549;50.918;5.338;2024-01-16T01:27:39;14.07;;;2.97;;
40827;SDS011;26549;50.918;5.338;2024-01-16T01:30:05;5.00;;;2.72;;
40827;SDS011;26549;50.918;5.338;2024-01-16T01:32:34;7.45;;;3.97;;
40827;SDS011;26549;50.918;5.338;2024-01-16T01:35:00;11.48;;;3.33;;
40827;SDS011;26549;50.918;5.338;2024-01-16T01:37:26;6.82;;;3.13;;
40827;SDS011;26549;50.918;5.338;2024-01-16T01:39:51;8.18;;;3.88;;
40827;SDS011;26549;50.918;5.338;2024-01-16T01:42:17;5.40;;;3.25;;
40827;SDS011;26549;50.918;5.338;2024-01-16T01:44:43;7.22;;;4.15;;
40827;SDS011;26549;50.918;5.338;2024-01-16T01:47:10;5.32;;;2.75;;
40827;SDS011;26549;50.918;5.338;2024-01-16T01:49:36;5.95;;;3.20;;
40827;SDS011;26549;50.918;5.338;2024-01-16T01:52:03;8.02;;;2.45;;
40827;SDS011;26549;50.918;5.338;2024-01-16T01:54:31;7.05;;;2.55;;
40827;SDS011;26549;50.918;5.338;2024-01-16T01:57:00;8.68;;;2.58;;
40827;SDS011;26549;50.918;5.338;2024-01-16T01:59:26;9.48;;;2.72;;
40827;SDS011;26549;50.918;5.338;2024-01-16T02:01:52;10.30;;;3.22;;
40827;SDS011;26549;50.918;5.338;2024-01-16T02:04:19;8.05;;;2.78;;
40827;SDS011;26549;50.918;5.338;2024-01-16T02:06:46;6.47;;;3.13;;
40827;SDS011;26549;50.918;5.338;2024-01-16T02:09:12;9.75;;;3.20;;
40827;SDS011;26549;50.918;5.338;2024-01-16T02:11:42;9.55;;;4.13;;
40827;SDS011;26549;50.918;5.338;2024-01-16T02:14:08;6.13;;;2.70;;
40827;SDS011;26549;50.918;5.338;2024-01-16T02:16:41;7.05;;;3.08;;
40827;SDS011;26549;50.918;5.338;2024-01-16T02:19:09;9.60;;;3.77;;
40827;SDS011;26549;50.918;5.338;2024-01-16T02:21:42;9.15;;;3.67;;
40827;SDS011;26549;50.918;5.338;2024-01-16T02:24:15;10.07;;;3.30;;
40827;SDS011;26549;50.918;5.338;2024-01-16T02:26:43;10.93;;;3.03;;
40827;SDS011;26549;50.918;5.338;2024-01-16T02:29:09;4.70;;;2.83;;
40827;SDS011;26549;50.918;5.338;2024-01-16T02:31:35;6.97;;;3.42;;
40827;SDS011;26549;50.918;5.338;2024-01-16T02:34:01;8.23;;;3.47;;
40827;SDS011;26549;50.918;5.338;2024-01-16T02:36:29;6.60;;;3.63;;
40827;SDS011;26549;50.918;5.338;2024-01-16T02:38:55;7.80;;;2.67;;
40827;SDS011;26549;50.918;5.338;2024-01-16T02:41:21;3.53;;;2.17;;
40827;SDS011;26549;50.918;5.338;2024-01-16T02:43:47;10.23;;;3.40;;
40827;SDS011;26549;50.918;5.338;2024-01-16T02:46:13;8.07;;;3.75;;
40827;SDS011;26549;50.918;5.338;2024-01-16T02:48:39;7.95;;;3.67;;
40827;SDS011;26549;50.918;5.338;2024-01-16T02:51:07;6.93;;;2.97;;
40827;SDS011;26549;50.918;5.338;2024-01-16T02:53:34;9.75;;;3.40;;
40827;SDS011;26549;50.918;5.338;2024-01-16T02:55:59;5.30;;;3.05;;
40827;SDS011;26549;50.918;5.338;2024-01-16T02:58:30;7.10;;;2.70;;
40827;SDS011;26549;50.918;5.338;2024-01-16T03:00:56;5.88;;;2.55;;
40827;SDS011;26549;50.918;5.338;2024-01-16T03:03:22;7.43;;;2.38;;
40827;SDS011;26549;50.918;5.338;2024-01-16T03:05:48;5.93;;;2.83;;
40827;SDS011;26549;50.918;5.338;2024-01-16T03:08:14;9.82;;;4.88;;
40827;SDS011;26549;50.918;5.338;2024-01-16T03:10:40;9.20;;;3.13;;
40827;SDS011;26549;50.918;5.338;2024-01-16T03:13:06;8.43;;;2.58;;
40827;SDS011;26549;50.918;5.338;2024-01-16T03:15:32;5.05;;;3.17;;
40827;SDS011;26549;50.918;5.338;2024-01-16T03:17:58;4.93;;;2.97;;
40827;SDS011;26549;50.918;5.338;2024-01-16T03:20:28;9.25;;;3.50;;
40827;SDS011;26549;50.918;5.338;2024-01-16T03:22:54;7.80;;;3.58;;
40827;SDS011;26549;50.918;5.338;2024-01-16T03:25:20;3.53;;;2.40;;
40827;SDS011;26549;50.918;5.338;2024-01-16T03:27:46;4.93;;;2.22;;
40827;SDS011;26549;50.918;5.338;2024-01-16T03:30:12;5.25;;;2.97;;
40827;SDS011;26549;50.918;5.338;2024-01-16T03:32:38;6.70;;;2.30;;
40827;SDS011;26549;50.918;5.338;2024-01-16T03:35:04;7.18;;;3.65;;
40827;SDS011;26549;50.918;5.338;2024-01-16T03:37:31;8.20;;;2.95;;
40827;SDS011;26549;50.918;5.338;2024-01-16T03:39:57;5.57;;;2.97;;
40827;SDS011;26549;50.918;5.338;2024-01-16T03:42:24;4.47;;;2.42;;
40827;SDS011;26549;50.918;5.338;2024-01-16T03:44:49;6.97;;;3.53;;
40827;SDS011;26549;50.918;5.338;2024-01-16T03:47:16;8.02;;;2.72;;
40827;SDS011;26549;50.918;5.338;2024-01-16T03:49:42;6.70;;;2.78;;
40827;SDS011;26549;50.918;5.338;2024-01-16T03:52:08;5.65;;;2.28;;
40827;SDS011;26549;50.918;5.338;2024-01-16T03:54:34;7.38;;;2.80;;
40827;SDS011;26549;50.918;5.338;2024-01-16T03:57:00;4.00;;;2.55;;
40827;SDS011;26549;50.918;5.338;2024-01-16T03:59:26;7.30;;;3.00;;
40827;SDS011;26549;50.918;5.338;2024-01-16T04:01:52;6.07;;;2.30;;
40827;SDS011;26549;50.918;5.338;2024-01-16T04:04:17;9.07;;;2.60;;
40827;SDS011;26549;50.918;5.338;2024-01-16T04:06:43;5.90;;;2.75;;
40827;SDS011;26549;50.918;5.338;2024-01-16T04:09:09;10.32;;;3.47;;
40827;SDS011;26549;50.918;5.338;2024-01-16T04:11:35;6.72;;;2.78;;
40827;SDS011;26549;50.918;5.338;2024-01-16T04:14:01;6.45;;;4.50;;
40827;SDS011;26549;50.918;5.338;2024-01-16T04:16:27;4.15;;;2.67;;
40827;SDS011;26549;50.918;5.338;2024-01-16T04:18:52;6.07;;;2.75;;
40827;SDS011;26549;50.918;5.338;2024-01-16T04:21:18;8.40;;;2.38;;
40827;SDS011;26549;50.918;5.338;2024-01-16T04:23:44;7.00;;;2.15;;
40827;SDS011;26549;50.918;5.338;2024-01-16T04:26:10;10.43;;;3.78;;
40827;SDS011;26549;50.918;5.338;2024-01-16T04:28:36;7.13;;;2.60;;
40827;SDS011;26549;50.918;5.338;2024-01-16T04:31:02;3.53;;;2.28;;
40827;SDS011;26549;50.918;5.338;2024-01-16T04:33:29;3.03;;;2.17;;
40827;SDS011;26549;50.918;5.338;2024-01-16T04:35:55;7.00;;;2.53;;
40827;SDS011;26549;50.918;5.338;2024-01-16T04:38:21;6.07;;;2.58;;
40827;SDS011;26549;50.918;5.338;2024-01-16T04:40:47;6.55;;;2.28;;
40827;SDS011;26549;50.918;5.338;2024-01-16T04:43:13;6.72;;;2.90;;
40827;SDS011;26549;50.918;5.338;2024-01-16T04:45:39;6.55;;;2.55;;
40827;SDS011;26549;50.918;5.338;2024-01-16T04:48:05;8.38;;;3.10;;
40827;SDS011;26549;50.918;5.338;2024-01-16T04:50:31;3.78;;;2.72;;
40827;SDS011;26549;50.918;5.338;2024-01-16T04:53:00;7.28;;;3.60;;
40827;SDS011;26549;50.918;5.338;2024-01-16T04:55:27;5.13;;;2.20;;
40827;SDS011;26549;50.918;5.338;2024-01-16T04:57:56;8.82;;;2.63;;
40827;SDS011;26549;50.918;5.338;2024-01-16T05:00:23;7.75;;;4.28;;
40827;SDS011;26549;50.918;5.338;2024-01-16T05:02:49;7.18;;;3.50;;
40827;SDS011;26549;50.918;5.338;2024-01-16T05:05:14;7.75;;;3.05;;
40827;SDS011;26549;50.918;5.338;2024-01-16T05:07:41;9.75;;;3.90;;
40827;SDS011;26549;50.918;5.338;2024-01-16T05:10:10;7.60;;;2.88;;
40827;SDS011;26549;50.918;5.338;2024-01-16T05:12:40;8.30;;;2.97;;
40827;SDS011;26549;50.918;5.338;2024-01-16T05:15:07;9.38;;;3.45;;
40827;SDS011;26549;50.918;5.338;2024-01-16T05:17:34;12.82;;;3.85;;
40827;SDS011;26549;50.918;5.338;2024-01-16T05:20:01;10.70;;;3.88;;
40827;SDS011;26549;50.918;5.338;2024-01-16T05:22:29;11.40;;;4.28;;
40827;SDS011;26549;50.918;5.338;2024-01-16T05:24:55;11.05;;;4.30;;
40827;SDS011;26549;50.918;5.338;2024-01-16T05:27:20;6.88;;;4.80;;
40827;SDS011;26549;50.918;5.338;2024-01-16T05:29:46;9.48;;;4.05;;
40827;SDS011;26549;50.918;5.338;2024-01-16T05:32:13;6.85;;;3.88;;
40827;SDS011;26549;50.918;5.338;2024-01-16T05:34:39;11.57;;;4.30;;
40827;SDS011;26549;50.918;5.338;2024-01-16T05:37:04;9.48;;;5.43;;
40827;SDS011;26549;50.918;5.338;2024-01-16T05:39:30;13.32;;;4.45;;
40827;SDS011;26549;50.918;5.338;2024-01-16T05:41:56;9.80;;;4.07;;
40827;SDS011;26549;50.918;5.338;2024-01-16T05:44:22;10.60;;;3.80;;
40827;SDS011;26549;50.918;5.338;2024-01-16T05:46:48;9.68;;;4.72;;
40827;SDS011;26549;50.918;5.338;2024-01-16T05:49:14;11.23;;;4.43;;
40827;SDS011;26549;50.918;5.338;2024-01-16T05:51:40;8.45;;;4.00;;
40827;SDS011;26549;50.918;5.338;2024-01-16T05:54:05;13.30;;;3.83;;
40827;SDS011;26549;50.918;5.338;2024-01-16T05:56:31;7.20;;;4.07;;
40827;SDS011;26549;50.918;5.338;2024-01-16T05:58:59;7.82;;;4.00;;
40827;SDS011;26549;50.918;5.338;2024-01-16T06:01:25;7.53;;;3.30;;
40827;SDS011;26549;50.918;5.338;2024-01-16T06:03:52;9.10;;;3.95;;
40827;SDS011;26549;50.918;5.338;2024-01-16T06:06:18;5.78;;;3.40;;
40827;SDS011;26549;50.918;5.338;2024-01-16T06:08:44;9.63;;;4.97;;
40827;SDS011;26549;50.918;5.338;2024-01-16T06:11:10;4.72;;;4.32;;
40827;SDS011;26549;50.918;5.338;2024-01-16T06:13:36;12.75;;;3.88;;
40827;SDS011;26549;50.918;5.338;2024-01-16T06:16:02;5.70;;;3.78;;
40827;SDS011;26549;50.918;5.338;2024-01-16T06:18:28;13.88;;;3.97;;
40827;SDS011;26549;50.918;5.338;2024-01-16T06:20:54;5.63;;;3.28;;
40827;SDS011;26549;50.918;5.338;2024-01-16T06:23:19;9.90;;;4.70;;
40827;SDS011;26549;50.918;5.338;2024-01-16T06:25:45;6.75;;;4.05;;
40827;SDS011;26549;50.918;5.338;2024-01-16T06:28:11;11.32;;;4.03;;
40827;SDS011;26549;50.918;5.338;2024-01-16T06:30:38;8.77;;;4.25;;
40827;SDS011;26549;50.918;5.338;2024-01-16T06:33:03;8.98;;;4.57;;
40827;SDS011;26549;50.918;5.338;2024-01-16T06:35:29;9.18;;;4.35;;
40827;SDS011;26549;50.918;5.338;2024-01-16T06:37:55;9.40;;;4.38;;
40827;SDS011;26549;50.918;5.338;2024-01-16T06:40:21;9.57;;;3.65;;
40827;SDS011;26549;50.918;5.338;2024-01-16T06:42:47;11.15;;;5.53;;
40827;SDS011;26549;50.918;5.338;2024-01-16T06:45:12;8.65;;;4.38;;
40827;SDS011;26549;50.918;5.338;2024-01-16T06:47:38;9.60;;;4.10;;
40827;SDS011;26549;50.918;5.338;2024-01-16T06:50:05;16.60;;;4.88;;
40827;SDS011;26549;50.918;5.338;2024-01-16T06:52:31;7.72;;;3.60;;
40827;SDS011;26549;50.918;5.338;2024-01-16T06:54:57;9.68;;;4.38;;
40827;SDS011;26549;50.918;5.338;2024-01-16T06:57:22;8.80;;;3.53;;
40827;SDS011;26549;50.918;5.338;2024-01-16T06:59:48;8.65;;;3.05;;
40827;SDS011;26549;50.918;5.338;2024-01-16T07:02:14;8.85;;;4.38;;
40827;SDS011;26549;50.918;5.338;2024-01-16T07:04:40;12.77;;;4.63;;
40827;SDS011;26549;50.918;5.338;2024-01-16T07:07:06;12.40;;;4.85;;
40827;SDS011;26549;50.918;5.338;2024-01-16T07:09:31;9.98;;;4.43;;
40827;SDS011;26549;50.918;5.338;2024-01-16T07:11:57;7.82;;;4.75;;
40827;SDS011;26549;50.918;5.338;2024-01-16T07:14:23;9.40;;;4.93;;
40827;SDS011;26549;50.918;5.338;2024-01-16T07:16:50;12.57;;;5.07;;
40827;SDS011;26549;50.918;5.338;2024-01-16T07:19:17;9.98;;;4.10;;
40827;SDS011;26549;50.918;5.338;2024-01-16T07:21:43;13.85;;;4.55;;
40827;SDS011;26549;50.918;5.338;2024-01-16T07:24:09;8.15;;;4.32;;
40827;SDS011;26549;50.918;5.338;2024-01-16T07:26:35;11.75;;;4.93;;
40827;SDS011;26549;50.918;5.338;2024-01-16T07:29:01;5.38;;;3.75;;
40827;SDS011;26549;50.918;5.338;2024-01-16T07:31:27;9.30;;;3.72;;
40827;SDS011;26549;50.918;5.338;2024-01-16T07:33:52;12.57;;;4.35;;
40827;SDS011;26549;50.918;5.338;2024-01-16T07:36:18;8.95;;;5.22;;
40827;SDS011;26549;50.918;5.338;2024-01-16T07:38:44;14.20;;;4.53;;
40827;SDS011;26549;50.918;5.338;2024-01-16T07:41:09;10.85;;;3.47;;
40827;SDS011;26549;50.918;5.338;2024-01-16T07:43:35;13.50;;;5.00;;
40827;SDS011;26549;50.918;5.338;2024-01-16T07:46:01;10.75;;;5.03;;
40827;SDS011;26549;50.918;5.338;2024-01-16T07:48:28;8.55;;;4.15;;
40827;SDS011;26549;50.918;5.338;2024-01-16T07:50:54;11.25;;;5.50;;
40827;SDS011;26549;50.918;5.338;2024-01-16T07:53:20;9.63;;;4.75;;
40827;SDS011;26549;50.918;5.338;2024-01-16T07:55:46;12.20;;;4.55;;
40827;SDS011;26549;50.918;5.338;2024-01-16T07:58:11;7.32;;;4.70;;
40827;SDS011;26549;50.918;5.338;2024-01-16T08:00:38;10.63;;;4.18;;
40827;SDS011;26549;50.918;5.338;2024-01-16T08:03:06;12.07;;;4.78;;
40827;SDS011;26549;50.918;5.338;2024-01-16T08:05:33;10.60;;;4.43;;
40827;SDS011;26549;50.918;5.338;2024-01-16T08:07:59;16.10;;;5.47;;
40827;SDS011;26549;50.918;5.338;2024-01-16T08:10:28;11.05;;;5.30;;
40827;SDS011;26549;50.918;5.338;2024-01-16T08:12:53;10.38;;;4.40;;
40827;SDS011;26549;50.918;5.338;2024-01-16T08:15:19;9.57;;;3.92;;
40827;SDS011;26549;50.918;5.338;2024-01-16T08:17:45;12.57;;;5.53;;
40827;SDS011;26549;50.918;5.338;2024-01-16T08:20:11;10.10;;;4.63;;
40827;SDS011;26549;50.918;5.338;2024-01-16T08:22:38;12.35;;;4.18;;
40827;SDS011;26549;50.918;5.338;2024-01-16T08:25:03;11.82;;;4.60;;
40827;SDS011;26549;50.918;5.338;2024-01-16T08:27:33;11.02;;;5.20;;
40827;SDS011;26549;50.918;5.338;2024-01-16T08:29:59;9.18;;;5.00;;
40827;SDS011;26549;50.918;5.338;2024-01-16T08:32:26;8.77;;;4.68;;
40827;SDS011;26549;50.918;5.338;2024-01-16T08:34:52;13.68;;;4.82;;
40827;SDS011;26549;50.918;5.338;2024-01-16T08:37:18;10.13;;;4.65;;
40827;SDS011;26549;50.918;5.338;2024-01-16T08:39:44;12.65;;;5.22;;
40827;SDS011;26549;50.918;5.338;2024-01-16T08:42:10;10.88;;;5.07;;
40827;SDS011;26549;50.918;5.338;2024-01-16T08:44:38;10.65;;;4.95;;
40827;SDS011;26549;50.918;5.338;2024-01-16T08:47:07;11.35;;;4.45;;
40827;SDS011;26549;50.918;5.338;2024-01-16T08:49:32;10.77;;;5.07;;
40827;SDS011;26549;50.918;5.338;2024-01-16T08:51:58;8.52;;;4.50;;
40827;SDS011;26549;50.918;5.338;2024-01-16T08:54:25;10.27;;;4.85;;
40827;SDS011;26549;50.918;5.338;2024-01-16T08:56:51;10.48;;;4.63;;
40827;SDS011;26549;50.918;5.338;2024-01-16T08:59:17;13.35;;;5.40;;
40827;SDS011;26549;50.918;5.338;2024-01-16T09:01:43;9.82;;;3.75;;
40827;SDS011;26549;50.918;5.338;2024-01-16T09:04:09;7.95;;;4.65;;
40827;SDS011;26549;50.918;5.338;2024-01-16T09:06:35;13.80;;;4.82;;
40827;SDS011;26549;50.918;5.338;2024-01-16T09:09:01;10.25;;;4.18;;
40827;SDS011;26549;50.918;5.338;2024-01-16T09:11:29;13.00;;;4.22;;
40827;SDS011;26549;50.918;5.338;2024-01-16T09:13:55;9.63;;;3.55;;
40827;SDS011;26549;50.918;5.338;2024-01-16T09:16:20;6.28;;;3.42;;
40827;SDS011;26549;50.918;5.338;2024-01-16T09:18:46;6.97;;;3.33;;
40827;SDS011;26549;50.918;5.338;2024-01-16T09:21:13;12.95;;;5.18;;
40827;SDS011;26549;50.918;5.338;2024-01-16T09:23:39;10.02;;;4.20;;
40827;SDS011;26549;50.918;5.338;2024-01-16T09:26:05;7.88;;;4.10;;
40827;SDS011;26549;50.918;5.338;2024-01-16T09:28:31;9.18;;;4.30;;
40827;SDS011;26549;50.918;5.338;2024-01-16T09:30:56;8.05;;;3.75;;
40827;SDS011;26549;50.918;5.338;2024-01-16T09:33:23;6.10;;;3.72;;
40827;SDS011;26549;50.918;5.338;2024-01-16T09:35:50;12.13;;;4.13;;
40827;SDS011;26549;50.918;5.338;2024-01-16T09:38:16;9.30;;;4.13;;
40827;SDS011;26549;50.918;5.338;2024-01-16T09:40:42;7.13;;;4.75;;
40827;SDS011;26549;50.918;5.338;2024-01-16T09:43:09;15.23;;;4.60;;
40827;SDS011;26549;50.918;5.338;2024-01-16T09:45:39;8.00;;;4.13;;
40827;SDS011;26549;50.918;5.338;2024-01-16T09:48:05;8.73;;;4.20;;
40827;SDS011;26549;50.918;5.338;2024-01-16T09:50:33;8.43;;;3.78;;
40827;SDS011;26549;50.918;5.338;2024-01-16T09:52:59;6.72;;;3.83;;
40827;SDS011;26549;50.918;5.338;2024-01-16T09:55:25;6.60;;;3.53;;
40827;SDS011;26549;50.918;5.338;2024-01-16T09:57:51;9.43;;;4.55;;
40827;SDS011;26549;50.918;5.338;2024-01-16T10:00:18;5.03;;;3.30;;
40827;SDS011;26549;50.918;5.338;2024-01-16T10:02:45;5.20;;;3.25;;
40827;SDS011;26549;50.918;5.338;2024-01-16T10:05:12;6.38;;;3.60;;
40827;SDS011;26549;50.918;5.338;2024-01-16T10:07:38;11.07;;;3.80;;
40827;SDS011;26549;50.918;5.338;2024-01-16T10:10:05;9.00;;;3.17;;
40827;SDS011;26549;50.918;5.338;2024-01-16T10:12:32;9.93;;;3.67;;
40827;SDS011;26549;50.918;5.338;2024-01-16T10:14:59;9.70;;;3.88;;
40827;SDS011;26549;50.918;5.338;2024-01-16T10:17:39;6.57;;;3.72;;
40827;SDS011;26549;50.918;5.338;2024-01-16T10:20:08;7.07;;;3.97;;
40827;SDS011;26549;50.918;5.338;2024-01-16T10:22:41;10.60;;;3.75;;
40827;SDS011;26549;50.918;5.338;2024-01-16T10:25:18;10.27;;;4.30;;
40827;SDS011;26549;50.918;5.338;2024-01-16T10:27:46;8.15;;;4.50;;
40827;SDS011;26549;50.918;5.338;2024-01-16T10:30:12;8.73;;;3.75;;
40827;SDS011;26549;50.918;5.338;2024-01-16T10:32:42;6.13;;;3.40;;
40827;SDS011;26549;50.918;5.338;2024-01-16T10:35:10;12.80;;;3.95;;
40827;SDS011;26549;50.918;5.338;2024-01-16T10:37:43;9.95;;;5.57;;
40827;SDS011;26549;50.918;5.338;2024-01-16T10:40:17;14.38;;;4.07;;
40827;SDS011;26549;50.918;5.338;2024-01-16T10:42:56;5.82;;;3.28;;
40827;SDS011;26549;50.918;5.338;2024-01-16T10:45:26;8.50;;;4.07;;
40827;SDS011;26549;50.918;5.338;2024-01-16T10:50:31;6.28;;;4.45;;
40827;SDS011;26549;50.918;5.338;2024-01-16T10:52:59;10.60;;;5.57;;
40827;SDS011;26549;50.918;5.338;2024-01-16T10:55:26;6.70;;;4.25;;
40827;SDS011;26549;50.918;5.338;2024-01-16T10:57:54;8.73;;;3.83;;
40827;SDS011;26549;50.918;5.338;2024-01-16T11:00:23;10.45;;;4.95;;
40827;SDS011;26549;50.918;5.338;2024-01-16T11:03:02;8.57;;;4.35;;
40827;SDS011;26549;50.918;5.338;2024-01-16T11:05:31;11.45;;;5.55;;
40827;SDS011;26549;50.918;5.338;2024-01-16T11:08:00;11.95;;;4.25;;
40827;SDS011;26549;50.918;5.338;2024-01-16T11:10:27;9.27;;;3.80;;
40827;SDS011;26549;50.918;5.338;2024-01-16T11:12:55;11.30;;;4.95;;
40827;SDS011;26549;50.918;5.338;2024-01-16T11:15:24;7.40;;;3.95;;
40827;SDS011;26549;50.918;5.338;2024-01-16T11:20:25;11.30;;;4.70;;
40827;SDS011;26549;50.918;5.338;2024-01-16T11:22:53;14.23;;;6.50;;
40827;SDS011;26549;50.918;5.338;2024-01-16T11:25:30;7.05;;;4.65;;
40827;SDS011;26549;50.918;5.338;2024-01-16T11:28:10;14.20;;;6.22;;
40827;SDS011;26549;50.918;5.338;2024-01-16T11:30:40;12.13;;;4.82;;
40827;SDS011;26549;50.918;5.338;2024-01-16T11:35:57;7.22;;;4.78;;
40827;SDS011;26549;50.918;5.338;2024-01-16T11:38:25;9.80;;;4.13;;
40827;SDS011;26549;50.918;5.338;2024-01-16T11:40:54;8.77;;;3.50;;
40827;SDS011;26549;50.918;5.338;2024-01-16T11:43:36;12.40;;;3.97;;
40827;SDS011;26549;50.918;5.338;2024-01-16T11:46:06;9.80;;;4.38;;
40827;SDS011;26549;50.918;5.338;2024-01-16T11:48:32;7.13;;;3.92;;
40827;SDS011;26549;50.918;5.338;2024-01-16T11:50:59;6.50;;;3.22;;
40827;SDS011;26549;50.918;5.338;2024-01-16T11:53:37;7.55;;;4.13;;
40827;SDS011;26549;50.918;5.338;2024-01-16T11:56:34;7.15;;;4.07;;
40827;SDS011;26549;50.918;5.338;2024-01-16T11:59:41;6.45;;;3.83;;
40827;SDS011;26549;50.918;5.338;2024-01-16T12:02:49;14.20;;;3.80;;
40827;SDS011;26549;50.918;5.338;2024-01-16T12:05:18;5.32;;;3.80;;
40827;SDS011;26549;50.918;5.338;2024-01-16T12:07:50;7.95;;;3.92;;
40827;SDS011;26549;50.918;5.338;2024-01-16T12:10:20;9.25;;;3.75;;
40827;SDS011;26549;50.918;5.338;2024-01-16T12:15:20;5.07;;;3.47;;
40827;SDS011;26549;50.918;5.338;2024-01-16T12:20:24;7.88;;;3.42;;
40827;SDS011;26549;50.918;5.338;2024-01-16T12:23:00;9.05;;;3.22;;
40827;SDS011;26549;50.918;5.338;2024-01-16T12:25:29;8.27;;;3.17;;
40827;SDS011;26549;50.918;5.338;2024-01-16T12:27:59;6.70;;;3.30;;
40827;SDS011;26549;50.918;5.338;2024-01-16T12:30:35;8.82;;;3.20;;
40827;SDS011;26549;50.918;5.338;2024-01-16T12:33:12;11.02;;;3.03;;
40827;SDS011;26549;50.918;5.338;2024-01-16T12:35:39;6.20;;;2.80;;
40827;SDS011;26549;50.918;5.338;2024-01-16T12:38:07;9.57;;;3.55;;
40827;SDS011;26549;50.918;5.338;2024-01-16T12:40:44;6.97;;;3.53;;
40827;SDS011;26549;50.918;5.338;2024-01-16T12:43:13;10.25;;;3.88;;
40827;SDS011;26549;50.918;5.338;2024-01-16T12:45:39;4.00;;;3.03;;
40827;SDS011;26549;50.918;5.338;2024-01-16T12:48:04;5.25;;;3.35;;
40827;SDS011;26549;50.918;5.338;2024-01-16T12:50:31;6.25;;;3.67;;
40827;SDS011;26549;50.918;5.338;2024-01-16T12:53:01;10.70;;;4.10;;
40827;SDS011;26549;50.918;5.338;2024-01-16T12:55:39;3.88;;;3.08;;
40827;SDS011;26549;50.918;5.338;2024-01-16T12:58:15;8.52;;;4.05;;
40827;SDS011;26549;50.918;5.338;2024-01-16T13:00:42;10.20;;;3.70;;
40827;SDS011;26549;50.918;5.338;2024-01-16T13:03:14;7.97;;;3.33;;
40827;SDS011;26549;50.918;5.338;2024-01-16T13:05:43;6.35;;;2.90;;
40827;SDS011;26549;50.918;5.338;2024-01-16T13:08:16;12.07;;;3.97;;
40827;SDS011;26549;50.918;5.338;2024-01-16T13:10:44;7.05;;;3.67;;
40827;SDS011;26549;50.918;5.338;2024-01-16T13:13:20;7.13;;;4.10;;
40827;SDS011;26549;50.918;5.338;2024-01-16T13:15:47;7.68;;;3.28;;
40827;SDS011;26549;50.918;5.338;2024-01-16T13:18:19;7.18;;;3.88;;
40827;SDS011;26549;50.918;5.338;2024-01-16T13:20:51;5.10;;;3.03;;
40827;SDS011;26549;50.918;5.338;2024-01-16T13:23:21;10.35;;;2.90;;
40827;SDS011;26549;50.918;5.338;2024-01-16T13:25:47;3.88;;;2.55;;
40827;SDS011;26549;50.918;5.338;2024-01-16T13:28:14;10.50;;;3.75;;
40827;SDS011;26549;50.918;5.338;2024-01-16T13:33:13;7.13;;;3.08;;
40827;SDS011;26549;50.918;5.338;2024-01-16T13:35:41;6.10;;;3.47;;
40827;SDS011;26549;50.918;5.338;2024-01-16T13:38:11;7.95;;;3.30;;
40827;SDS011;26549;50.918;5.338;2024-01-16T13:40:37;9.82;;;3.08;;
40827;SDS011;26549;50.918;5.338;2024-01-16T13:43:03;5.95;;;3.08;;
40827;SDS011;26549;50.918;5.338;2024-01-16T13:45:34;9.07;;;3.20;;
40827;SDS011;26549;50.918;5.338;2024-01-16T13:48:02;3.78;;;2.47;;
40827;SDS011;26549;50.918;5.338;2024-01-16T13:50:30;4.65;;;3.00;;
40827;SDS011;26549;50.918;5.338;2024-01-16T13:52:59;5.75;;;2.80;;
40827;SDS011;26549;50.918;5.338;2024-01-16T13:55:29;11.93;;;3.05;;
40827;SDS011;26549;50.918;5.338;2024-01-16T13:57:57;7.47;;;3.80;;
40827;SDS011;26549;50.918;5.338;2024-01-16T14:00:24;9.43;;;2.92;;
40827;SDS011;26549;50.918;5.338;2024-01-16T14:02:50;8.55;;;3.63;;
40827;SDS011;26549;50.918;5.338;2024-01-16T14:05:18;5.45;;;3.13;;
40827;SDS011;26549;50.918;5.338;2024-01-16T14:07:45;5.53;;;2.90;;
40827;SDS011;26549;50.918;5.338;2024-01-16T14:10:17;4.43;;;3.08;;
40827;SDS011;26549;50.918;5.338;2024-01-16T14:12:47;7.53;;;3.57;;
40827;SDS011;26549;50.918;5.338;2024-01-16T14:15:15;6.63;;;2.92;;
40827;SDS011;26549;50.918;5.338;2024-01-16T14:17:42;10.13;;;3.80;;
40827;SDS011;26549;50.918;5.338;2024-01-16T14:20:11;4.25;;;2.45;;
40827;SDS011;26549;50.918;5.338;2024-01-16T14:25:08;6.47;;;3.58;;
40827;SDS011;26549;50.918;5.338;2024-01-16T14:27:41;6.85;;;3.17;;
40827;SDS011;26549;50.918;5.338;2024-01-16T14:30:10;10.57;;;2.90;;
40827;SDS011;26549;50.918;5.338;2024-01-16T14:32:37;9.65;;;3.30;;
40827;SDS011;26549;50.918;5.338;2024-01-16T14:35:09;6.03;;;2.78;;
40827;SDS011;26549;50.918;5.338;2024-01-16T14:37:39;6.68;;;2.90;;
40827;SDS011;26549;50.918;5.338;2024-01-16T14:40:09;7.50;;;3.33;;
40827;SDS011;26549;50.918;5.338;2024-01-16T14:42:44;6.85;;;3.00;;
40827;SDS011;26549;50.918;5.338;2024-01-16T14:45:11;9.13;;;3.22;;
40827;SDS011;26549;50.918;5.338;2024-01-16T14:47:37;5.10;;;3.45;;
40827;SDS011;26549;50.918;5.338;2024-01-16T14:50:03;6.05;;;3.33;;
40827;SDS011;26549;50.918;5.338;2024-01-16T14:52:30;6.80;;;3.10;;
40827;SDS011;26549;50.918;5.338;2024-01-16T14:55:02;6.32;;;3.08;;
40827;SDS011;26549;50.918;5.338;2024-01-16T14:57:37;11.88;;;4.90;;
40827;SDS011;26549;50.918;5.338;2024-01-16T15:00:12;10.95;;;4.93;;
40827;SDS011;26549;50.918;5.338;2024-01-16T15:02:45;10.00;;;3.72;;
40827;SDS011;26549;50.918;5.338;2024-01-16T15:05:13;8.57;;;4.57;;